sensor_id;sensor_type;location;lat;lon;timestamp;P1;durP1;ratioP1;P2;durP2;ratioP2
57443;SDS011;43289;52.962;6.196;2023-11-22T00:00:55;17.65;;;10.55;;
57443;SDS011;43289;52.962;6.196;2023-11-22T00:03:21;15.23;;;9.73;;
57443;SDS011;43289;52.962;6.196;2023-11-22T00:05:49;16.42;;;10.40;;
57443;SDS011;43289;52.962;6.196;2023-11-22T00:08:15;15.95;;;9.55;;
57443;SDS011;43289;52.962;6.196;2023-11-22T00:10:41;14.35;;;9.38;;
57443;SDS011;43289;52.962;6.196;2023-11-22T00:13:07;16.05;;;9.55;;
57443;SDS011;43289;52.962;6.196;2023-11-22T00:15:33;16.20;;;9.38;;
57443;SDS011;43289;52.962;6.196;2023-11-22T00:18:01;15.18;;;9.18;;
57443;SDS011;43289;52.962;6.196;2023-11-22T00:20:28;17.20;;;9.57;;
57443;SDS011;43289;52.962;6.196;2023-11-22T00:22:55;14.02;;;9.05;;
57443;SDS011;43289;52.962;6.196;2023-11-22T00:25:21;13.93;;;8.00;;
57443;SDS011;43289;52.962;6.196;2023-11-22T00:27:47;14.43;;;9.50;;
57443;SDS011;43289;52.962;6.196;2023-11-22T00:30:13;12.85;;;8.32;;
57443;SDS011;43289;52.962;6.196;2023-11-22T00:32:39;14.48;;;8.88;;
57443;SDS011;43289;52.962;6.196;2023-11-22T00:35:06;13.55;;;8.43;;
57443;SDS011;43289;52.962;6.196;2023-11-22T00:37:33;13.00;;;8.85;;
57443;SDS011;43289;52.962;6.196;2023-11-22T00:40:00;14.38;;;8.93;;
57443;SDS011;43289;52.962;6.196;2023-11-22T00:42:35;12.60;;;8.55;;
57443;SDS011;43289;52.962;6.196;2023-11-22T00:45:01;14.38;;;8.52;;
57443;SDS011;43289;52.962;6.196;2023-11-22T00:47:30;16.00;;;8.98;;
57443;SDS011;43289;52.962;6.196;2023-11-22T00:49:56;11.90;;;8.30;;
57443;SDS011;43289;52.962;6.196;2023-11-22T00:52:22;13.23;;;7.97;;
57443;SDS011;43289;52.962;6.196;2023-11-22T00:54:48;14.20;;;8.55;;
57443;SDS011;43289;52.962;6.196;2023-11-22T00:57:15;16.05;;;8.48;;
57443;SDS011;43289;52.962;6.196;2023-11-22T00:59:41;15.00;;;10.10;;
57443;SDS011;43289;52.962;6.196;2023-11-22T01:02:07;15.30;;;9.30;;
57443;SDS011;43289;52.962;6.196;2023-11-22T01:04:34;16.02;;;8.95;;
57443;SDS011;43289;52.962;6.196;2023-11-22T01:07:02;16.20;;;9.18;;
57443;SDS011;43289;52.962;6.196;2023-11-22T01:09:31;14.90;;;9.30;;
57443;SDS011;43289;52.962;6.196;2023-11-22T01:11:58;16.92;;;8.80;;
57443;SDS011;43289;52.962;6.196;2023-11-22T01:14:24;15.98;;;9.77;;
57443;SDS011;43289;52.962;6.196;2023-11-22T01:16:51;15.23;;;9.63;;
57443;SDS011;43289;52.962;6.196;2023-11-22T01:19:17;16.92;;;10.63;;
57443;SDS011;43289;52.962;6.196;2023-11-22T01:21:43;20.67;;;10.23;;
57443;SDS011;43289;52.962;6.196;2023-11-22T01:24:09;15.30;;;9.38;;
57443;SDS011;43289;52.962;6.196;2023-11-22T01:26:36;16.00;;;10.15;;
57443;SDS011;43289;52.962;6.196;2023-11-22T01:29:03;16.02;;;9.30;;
57443;SDS011;43289;52.962;6.196;2023-11-22T01:31:29;15.73;;;10.07;;
57443;SDS011;43289;52.962;6.196;2023-11-22T01:33:56;16.02;;;9.27;;
57443;SDS011;43289;52.962;6.196;2023-11-22T01:36:22;17.13;;;9.88;;
57443;SDS011;43289;52.962;6.196;2023-11-22T01:38:48;14.98;;;9.80;;
57443;SDS011;43289;52.962;6.196;2023-11-22T01:44:14;14.98;;;9.27;;
57443;SDS011;43289;52.962;6.196;2023-11-22T01:46:40;19.25;;;10.55;;
57443;SDS011;43289;52.962;6.196;2023-11-22T01:49:09;16.13;;;10.05;;
57443;SDS011;43289;52.962;6.196;2023-11-22T01:51:35;16.02;;;9.30;;
57443;SDS011;43289;52.962;6.196;2023-11-22T01:54:01;15.90;;;10.63;;
57443;SDS011;43289;52.962;6.196;2023-11-22T01:56:27;17.27;;;9.07;;
57443;SDS011;43289;52.962;6.196;2023-11-22T01:58:54;17.15;;;9.38;;
57443;SDS011;43289;52.962;6.196;2023-11-22T02:01:21;15.32;;;9.52;;
57443;SDS011;43289;52.962;6.196;2023-11-22T02:03:47;17.58;;;9.15;;
57443;SDS011;43289;52.962;6.196;2023-11-22T02:06:15;16.60;;;9.70;;
57443;SDS011;43289;52.962;6.196;2023-11-22T02:08:41;17.95;;;9.80;;
57443;SDS011;43289;52.962;6.196;2023-11-22T02:11:08;15.57;;;8.60;;
57443;SDS011;43289;52.962;6.196;2023-11-22T02:13:34;16.80;;;9.10;;
57443;SDS011;43289;52.962;6.196;2023-11-22T02:16:02;18.98;;;8.68;;
57443;SDS011;43289;52.962;6.196;2023-11-22T02:18:28;16.45;;;8.55;;
57443;SDS011;43289;52.962;6.196;2023-11-22T02:20:54;12.38;;;7.95;;
57443;SDS011;43289;52.962;6.196;2023-11-22T02:23:20;19.25;;;8.50;;
57443;SDS011;43289;52.962;6.196;2023-11-22T02:25:46;15.50;;;9.15;;
57443;SDS011;43289;52.962;6.196;2023-11-22T02:28:12;15.57;;;9.48;;
57443;SDS011;43289;52.962;6.196;2023-11-22T02:30:39;15.48;;;9.20;;
57443;SDS011;43289;52.962;6.196;2023-11-22T02:33:06;14.10;;;9.13;;
57443;SDS011;43289;52.962;6.196;2023-11-22T02:35:32;17.35;;;9.40;;
57443;SDS011;43289;52.962;6.196;2023-11-22T02:37:58;15.40;;;8.90;;
57443;SDS011;43289;52.962;6.196;2023-11-22T02:40:24;17.38;;;9.90;;
57443;SDS011;43289;52.962;6.196;2023-11-22T02:42:51;17.17;;;10.27;;
57443;SDS011;43289;52.962;6.196;2023-11-22T02:45:26;20.05;;;10.27;;
57443;SDS011;43289;52.962;6.196;2023-11-22T02:47:53;17.63;;;9.77;;
57443;SDS011;43289;52.962;6.196;2023-11-22T02:50:19;16.45;;;9.45;;
57443;SDS011;43289;52.962;6.196;2023-11-22T02:52:45;19.27;;;9.70;;
57443;SDS011;43289;52.962;6.196;2023-11-22T02:55:10;21.13;;;10.30;;
57443;SDS011;43289;52.962;6.196;2023-11-22T02:57:36;15.75;;;9.30;;
57443;SDS011;43289;52.962;6.196;2023-11-22T03:00:06;18.73;;;9.95;;
57443;SDS011;43289;52.962;6.196;2023-11-22T03:02:33;15.85;;;9.18;;
57443;SDS011;43289;52.962;6.196;2023-11-22T03:05:02;17.98;;;9.75;;
57443;SDS011;43289;52.962;6.196;2023-11-22T03:07:28;16.85;;;10.00;;
57443;SDS011;43289;52.962;6.196;2023-11-22T03:09:55;16.83;;;9.30;;
57443;SDS011;43289;52.962;6.196;2023-11-22T03:12:20;20.73;;;10.90;;
57443;SDS011;43289;52.962;6.196;2023-11-22T03:14:46;16.58;;;10.38;;
57443;SDS011;43289;52.962;6.196;2023-11-22T03:17:14;19.33;;;10.70;;
57443;SDS011;43289;52.962;6.196;2023-11-22T03:19:40;21.50;;;11.77;;
57443;SDS011;43289;52.962;6.196;2023-11-22T03:22:05;16.98;;;10.68;;
57443;SDS011;43289;52.962;6.196;2023-11-22T03:24:32;18.75;;;10.07;;
57443;SDS011;43289;52.962;6.196;2023-11-22T03:27:02;19.70;;;10.38;;
57443;SDS011;43289;52.962;6.196;2023-11-22T03:29:28;20.17;;;10.82;;
57443;SDS011;43289;52.962;6.196;2023-11-22T03:31:54;20.35;;;10.07;;
57443;SDS011;43289;52.962;6.196;2023-11-22T03:34:20;18.98;;;10.52;;
57443;SDS011;43289;52.962;6.196;2023-11-22T03:36:46;17.88;;;10.52;;
57443;SDS011;43289;52.962;6.196;2023-11-22T03:39:12;17.10;;;10.05;;
57443;SDS011;43289;52.962;6.196;2023-11-22T03:41:39;20.17;;;10.02;;
57443;SDS011;43289;52.962;6.196;2023-11-22T03:44:06;21.70;;;10.80;;
57443;SDS011;43289;52.962;6.196;2023-11-22T03:46:34;18.98;;;10.55;;
57443;SDS011;43289;52.962;6.196;2023-11-22T03:49:01;17.35;;;10.45;;
57443;SDS011;43289;52.962;6.196;2023-11-22T03:51:28;19.88;;;10.80;;
57443;SDS011;43289;52.962;6.196;2023-11-22T03:53:54;19.77;;;10.05;;
57443;SDS011;43289;52.962;6.196;2023-11-22T03:56:19;20.35;;;11.38;;
57443;SDS011;43289;52.962;6.196;2023-11-22T03:58:46;20.25;;;10.63;;
57443;SDS011;43289;52.962;6.196;2023-11-22T04:01:13;20.05;;;9.50;;
57443;SDS011;43289;52.962;6.196;2023-11-22T04:03:40;16.65;;;9.80;;
57443;SDS011;43289;52.962;6.196;2023-11-22T04:06:05;21.90;;;10.73;;
57443;SDS011;43289;52.962;6.196;2023-11-22T04:08:31;17.08;;;9.02;;
57443;SDS011;43289;52.962;6.196;2023-11-22T04:10:57;19.13;;;9.30;;
57443;SDS011;43289;52.962;6.196;2023-11-22T04:13:22;20.33;;;9.52;;
57443;SDS011;43289;52.962;6.196;2023-11-22T04:15:49;19.30;;;8.90;;
57443;SDS011;43289;52.962;6.196;2023-11-22T04:18:15;15.18;;;7.90;;
57443;SDS011;43289;52.962;6.196;2023-11-22T04:20:41;14.18;;;7.97;;
57443;SDS011;43289;52.962;6.196;2023-11-22T04:23:07;19.63;;;9.77;;
57443;SDS011;43289;52.962;6.196;2023-11-22T04:25:36;28.10;;;11.32;;
57443;SDS011;43289;52.962;6.196;2023-11-22T04:28:02;22.15;;;10.75;;
57443;SDS011;43289;52.962;6.196;2023-11-22T04:30:28;23.45;;;11.43;;
57443;SDS011;43289;52.962;6.196;2023-11-22T04:32:54;19.58;;;10.57;;
57443;SDS011;43289;52.962;6.196;2023-11-22T04:35:20;25.40;;;10.90;;
57443;SDS011;43289;52.962;6.196;2023-11-22T04:37:46;16.48;;;9.60;;
57443;SDS011;43289;52.962;6.196;2023-11-22T04:40:13;20.58;;;9.38;;
57443;SDS011;43289;52.962;6.196;2023-11-22T04:42:39;18.42;;;9.43;;
57443;SDS011;43289;52.962;6.196;2023-11-22T04:45:05;25.27;;;10.93;;
57443;SDS011;43289;52.962;6.196;2023-11-22T04:47:32;24.33;;;10.25;;
57443;SDS011;43289;52.962;6.196;2023-11-22T04:49:58;21.35;;;10.40;;
57443;SDS011;43289;52.962;6.196;2023-11-22T04:52:24;26.38;;;12.38;;
57443;SDS011;43289;52.962;6.196;2023-11-22T04:54:49;21.83;;;10.73;;
57443;SDS011;43289;52.962;6.196;2023-11-22T04:57:15;24.85;;;11.18;;
57443;SDS011;43289;52.962;6.196;2023-11-22T04:59:41;22.00;;;10.32;;
57443;SDS011;43289;52.962;6.196;2023-11-22T05:02:07;17.50;;;9.88;;
57443;SDS011;43289;52.962;6.196;2023-11-22T05:04:33;21.20;;;9.95;;
57443;SDS011;43289;52.962;6.196;2023-11-22T05:06:59;16.23;;;10.00;;
57443;SDS011;43289;52.962;6.196;2023-11-22T05:09:24;20.48;;;9.75;;
57443;SDS011;43289;52.962;6.196;2023-11-22T05:11:50;15.20;;;7.82;;
57443;SDS011;43289;52.962;6.196;2023-11-22T05:14:17;22.95;;;8.95;;
57443;SDS011;43289;52.962;6.196;2023-11-22T05:16:42;23.00;;;10.07;;
57443;SDS011;43289;52.962;6.196;2023-11-22T05:19:08;20.80;;;10.57;;
57443;SDS011;43289;52.962;6.196;2023-11-22T05:21:34;21.52;;;11.10;;
57443;SDS011;43289;52.962;6.196;2023-11-22T05:23:59;26.98;;;12.68;;
57443;SDS011;43289;52.962;6.196;2023-11-22T05:26:25;19.60;;;10.73;;
57443;SDS011;43289;52.962;6.196;2023-11-22T05:28:52;22.83;;;11.90;;
57443;SDS011;43289;52.962;6.196;2023-11-22T05:31:19;28.83;;;11.27;;
57443;SDS011;43289;52.962;6.196;2023-11-22T05:33:46;22.90;;;10.85;;
57443;SDS011;43289;52.962;6.196;2023-11-22T05:36:11;24.13;;;11.00;;
57443;SDS011;43289;52.962;6.196;2023-11-22T05:38:37;22.52;;;9.80;;
57443;SDS011;43289;52.962;6.196;2023-11-22T05:41:03;23.48;;;10.55;;
57443;SDS011;43289;52.962;6.196;2023-11-22T05:43:29;23.17;;;9.32;;
57443;SDS011;43289;52.962;6.196;2023-11-22T05:45:54;21.15;;;9.80;;
57443;SDS011;43289;52.962;6.196;2023-11-22T05:48:20;24.13;;;10.30;;
57443;SDS011;43289;52.962;6.196;2023-11-22T05:50:46;23.70;;;10.70;;
57443;SDS011;43289;52.962;6.196;2023-11-22T05:53:12;14.40;;;8.30;;
57443;SDS011;43289;52.962;6.196;2023-11-22T05:55:45;22.42;;;10.70;;
57443;SDS011;43289;52.962;6.196;2023-11-22T05:58:12;21.73;;;10.40;;
57443;SDS011;43289;52.962;6.196;2023-11-22T06:00:41;20.15;;;10.10;;
57443;SDS011;43289;52.962;6.196;2023-11-22T06:03:08;22.45;;;9.48;;
57443;SDS011;43289;52.962;6.196;2023-11-22T06:05:34;25.27;;;10.07;;
57443;SDS011;43289;52.962;6.196;2023-11-22T06:07:59;19.70;;;9.95;;
57443;SDS011;43289;52.962;6.196;2023-11-22T06:10:25;32.92;;;13.10;;
57443;SDS011;43289;52.962;6.196;2023-11-22T06:12:51;22.20;;;11.82;;
57443;SDS011;43289;52.962;6.196;2023-11-22T06:15:17;24.08;;;11.65;;
57443;SDS011;43289;52.962;6.196;2023-11-22T06:17:45;27.70;;;10.90;;
57443;SDS011;43289;52.962;6.196;2023-11-22T06:20:12;30.15;;;11.43;;
57443;SDS011;43289;52.962;6.196;2023-11-22T06:22:38;26.60;;;11.63;;
57443;SDS011;43289;52.962;6.196;2023-11-22T06:25:07;23.27;;;10.88;;
57443;SDS011;43289;52.962;6.196;2023-11-22T06:27:33;28.63;;;12.77;;
57443;SDS011;43289;52.962;6.196;2023-11-22T06:29:58;28.88;;;12.27;;
57443;SDS011;43289;52.962;6.196;2023-11-22T06:32:24;27.60;;;12.93;;
57443;SDS011;43289;52.962;6.196;2023-11-22T06:34:49;27.35;;;12.10;;
57443;SDS011;43289;52.962;6.196;2023-11-22T06:37:16;26.50;;;12.38;;
57443;SDS011;43289;52.962;6.196;2023-11-22T06:39:42;22.90;;;10.93;;
57443;SDS011;43289;52.962;6.196;2023-11-22T06:42:07;32.33;;;12.45;;
57443;SDS011;43289;52.962;6.196;2023-11-22T06:44:33;22.23;;;11.77;;
57443;SDS011;43289;52.962;6.196;2023-11-22T06:46:59;26.63;;;12.18;;
57443;SDS011;43289;52.962;6.196;2023-11-22T06:49:25;32.88;;;12.50;;
57443;SDS011;43289;52.962;6.196;2023-11-22T06:51:50;27.58;;;12.27;;
57443;SDS011;43289;52.962;6.196;2023-11-22T06:54:18;35.00;;;12.63;;
57443;SDS011;43289;52.962;6.196;2023-11-22T06:56:45;29.70;;;12.52;;
57443;SDS011;43289;52.962;6.196;2023-11-22T06:59:11;31.70;;;12.23;;
57443;SDS011;43289;52.962;6.196;2023-11-22T07:01:36;27.27;;;12.40;;
57443;SDS011;43289;52.962;6.196;2023-11-22T07:04:02;29.05;;;12.07;;
57443;SDS011;43289;52.962;6.196;2023-11-22T07:06:29;28.38;;;12.88;;
57443;SDS011;43289;52.962;6.196;2023-11-22T07:08:55;28.17;;;13.32;;
57443;SDS011;43289;52.962;6.196;2023-11-22T07:11:23;29.23;;;14.80;;
57443;SDS011;43289;52.962;6.196;2023-11-22T07:13:49;24.48;;;13.13;;
57443;SDS011;43289;52.962;6.196;2023-11-22T07:16:14;33.05;;;15.05;;
57443;SDS011;43289;52.962;6.196;2023-11-22T07:18:40;29.92;;;14.20;;
57443;SDS011;43289;52.962;6.196;2023-11-22T07:21:06;34.13;;;15.38;;
57443;SDS011;43289;52.962;6.196;2023-11-22T07:23:31;31.92;;;14.50;;
57443;SDS011;43289;52.962;6.196;2023-11-22T07:25:57;32.95;;;15.32;;
57443;SDS011;43289;52.962;6.196;2023-11-22T07:28:22;31.48;;;14.40;;
57443;SDS011;43289;52.962;6.196;2023-11-22T07:30:49;27.35;;;15.05;;
57443;SDS011;43289;52.962;6.196;2023-11-22T07:33:15;30.17;;;14.63;;
57443;SDS011;43289;52.962;6.196;2023-11-22T07:35:40;37.38;;;15.93;;
57443;SDS011;43289;52.962;6.196;2023-11-22T07:38:06;34.85;;;15.85;;
57443;SDS011;43289;52.962;6.196;2023-11-22T07:40:36;33.03;;;16.35;;
57443;SDS011;43289;52.962;6.196;2023-11-22T07:43:02;32.15;;;16.10;;
57443;SDS011;43289;52.962;6.196;2023-11-22T07:45:30;34.28;;;16.83;;
57443;SDS011;43289;52.962;6.196;2023-11-22T07:47:57;36.30;;;16.95;;
57443;SDS011;43289;52.962;6.196;2023-11-22T07:50:24;34.10;;;16.83;;
57443;SDS011;43289;52.962;6.196;2023-11-22T07:52:53;33.78;;;17.38;;
57443;SDS011;43289;52.962;6.196;2023-11-22T07:55:19;30.08;;;16.73;;
57443;SDS011;43289;52.962;6.196;2023-11-22T07:57:47;35.05;;;15.35;;
57443;SDS011;43289;52.962;6.196;2023-11-22T08:00:14;32.38;;;17.95;;
57443;SDS011;43289;52.962;6.196;2023-11-22T08:02:44;33.88;;;17.00;;
57443;SDS011;43289;52.962;6.196;2023-11-22T08:05:10;30.83;;;16.65;;
57443;SDS011;43289;52.962;6.196;2023-11-22T08:07:37;33.78;;;17.00;;
57443;SDS011;43289;52.962;6.196;2023-11-22T08:10:06;36.42;;;17.13;;
57443;SDS011;43289;52.962;6.196;2023-11-22T08:12:43;35.45;;;16.75;;
57443;SDS011;43289;52.962;6.196;2023-11-22T08:15:13;34.10;;;16.52;;
57443;SDS011;43289;52.962;6.196;2023-11-22T08:17:40;31.48;;;16.75;;
57443;SDS011;43289;52.962;6.196;2023-11-22T08:20:07;27.77;;;15.65;;
57443;SDS011;43289;52.962;6.196;2023-11-22T08:22:41;33.10;;;16.75;;
57443;SDS011;43289;52.962;6.196;2023-11-22T08:25:08;35.80;;;16.83;;
57443;SDS011;43289;52.962;6.196;2023-11-22T08:27:37;35.53;;;17.13;;
57443;SDS011;43289;52.962;6.196;2023-11-22T08:30:03;31.50;;;15.75;;
57443;SDS011;43289;52.962;6.196;2023-11-22T08:32:33;29.98;;;15.40;;
57443;SDS011;43289;52.962;6.196;2023-11-22T08:34:59;27.73;;;15.32;;
57443;SDS011;43289;52.962;6.196;2023-11-22T08:37:25;28.90;;;14.98;;
57443;SDS011;43289;52.962;6.196;2023-11-22T08:39:51;27.65;;;16.65;;
57443;SDS011;43289;52.962;6.196;2023-11-22T08:42:17;28.13;;;16.02;;
57443;SDS011;43289;52.962;6.196;2023-11-22T08:44:43;29.67;;;17.23;;
57443;SDS011;43289;52.962;6.196;2023-11-22T08:47:09;30.55;;;15.93;;
57443;SDS011;43289;52.962;6.196;2023-11-22T08:49:35;25.52;;;15.45;;
57443;SDS011;43289;52.962;6.196;2023-11-22T08:52:01;28.90;;;15.30;;
57443;SDS011;43289;52.962;6.196;2023-11-22T08:54:28;30.63;;;16.98;;
57443;SDS011;43289;52.962;6.196;2023-11-22T08:56:55;29.08;;;15.38;;
57443;SDS011;43289;52.962;6.196;2023-11-22T08:59:26;38.72;;;17.23;;
57443;SDS011;43289;52.962;6.196;2023-11-22T09:05:15;30.38;;;15.93;;
57443;SDS011;43289;52.962;6.196;2023-11-22T09:07:42;27.83;;;14.32;;
57443;SDS011;43289;52.962;6.196;2023-11-22T09:10:09;26.48;;;14.95;;
57443;SDS011;43289;52.962;6.196;2023-11-22T09:12:39;26.35;;;15.38;;
57443;SDS011;43289;52.962;6.196;2023-11-22T09:15:06;26.45;;;15.70;;
57443;SDS011;43289;52.962;6.196;2023-11-22T09:17:35;31.13;;;16.08;;
57443;SDS011;43289;52.962;6.196;2023-11-22T09:20:01;23.15;;;13.65;;
57443;SDS011;43289;52.962;6.196;2023-11-22T09:22:28;23.95;;;13.73;;
57443;SDS011;43289;52.962;6.196;2023-11-22T09:24:54;27.65;;;13.75;;
57443;SDS011;43289;52.962;6.196;2023-11-22T09:27:21;28.23;;;14.73;;
57443;SDS011;43289;52.962;6.196;2023-11-22T09:29:47;26.27;;;14.32;;
57443;SDS011;43289;52.962;6.196;2023-11-22T09:32:14;24.42;;;14.27;;
57443;SDS011;43289;52.962;6.196;2023-11-22T09:34:40;24.65;;;14.77;;
57443;SDS011;43289;52.962;6.196;2023-11-22T09:37:09;24.58;;;13.43;;
57443;SDS011;43289;52.962;6.196;2023-11-22T09:39:35;25.42;;;15.52;;
57443;SDS011;43289;52.962;6.196;2023-11-22T09:42:01;24.60;;;14.52;;
57443;SDS011;43289;52.962;6.196;2023-11-22T09:44:27;25.40;;;14.27;;
57443;SDS011;43289;52.962;6.196;2023-11-22T09:46:54;23.50;;;14.43;;
57443;SDS011;43289;52.962;6.196;2023-11-22T09:49:22;26.70;;;14.60;;
57443;SDS011;43289;52.962;6.196;2023-11-22T09:51:51;24.98;;;14.90;;
57443;SDS011;43289;52.962;6.196;2023-11-22T09:54:17;27.40;;;15.77;;
57443;SDS011;43289;52.962;6.196;2023-11-22T09:56:44;26.20;;;14.63;;
57443;SDS011;43289;52.962;6.196;2023-11-22T09:59:15;26.25;;;14.77;;
57443;SDS011;43289;52.962;6.196;2023-11-22T10:01:44;22.52;;;14.07;;
57443;SDS011;43289;52.962;6.196;2023-11-22T10:04:10;35.92;;;21.70;;
57443;SDS011;43289;52.962;6.196;2023-11-22T10:06:36;45.65;;;30.75;;
57443;SDS011;43289;52.962;6.196;2023-11-22T10:09:03;35.58;;;21.92;;
57443;SDS011;43289;52.962;6.196;2023-11-22T10:11:32;31.65;;;19.35;;
57443;SDS011;43289;52.962;6.196;2023-11-22T10:13:58;26.95;;;19.52;;
57443;SDS011;43289;52.962;6.196;2023-11-22T10:16:24;26.52;;;16.23;;
57443;SDS011;43289;52.962;6.196;2023-11-22T10:18:50;33.92;;;22.10;;
57443;SDS011;43289;52.962;6.196;2023-11-22T10:21:18;34.58;;;22.27;;
57443;SDS011;43289;52.962;6.196;2023-11-22T10:23:44;62.97;;;52.17;;
57443;SDS011;43289;52.962;6.196;2023-11-22T10:26:12;57.08;;;50.97;;
57443;SDS011;43289;52.962;6.196;2023-11-22T10:28:41;35.13;;;27.40;;
57443;SDS011;43289;52.962;6.196;2023-11-22T10:31:14;26.90;;;23.52;;
57443;SDS011;43289;52.962;6.196;2023-11-22T10:33:42;22.10;;;15.35;;
57443;SDS011;43289;52.962;6.196;2023-11-22T10:36:08;21.20;;;14.07;;
57443;SDS011;43289;52.962;6.196;2023-11-22T10:38:34;19.77;;;14.55;;
57443;SDS011;43289;52.962;6.196;2023-11-22T10:41:07;18.92;;;13.45;;
57443;SDS011;43289;52.962;6.196;2023-11-22T10:43:34;21.63;;;13.95;;
57443;SDS011;43289;52.962;6.196;2023-11-22T10:46:03;40.45;;;36.20;;
57443;SDS011;43289;52.962;6.196;2023-11-22T10:48:30;28.77;;;24.65;;
57443;SDS011;43289;52.962;6.196;2023-11-22T10:50:59;26.98;;;21.77;;
57443;SDS011;43289;52.962;6.196;2023-11-22T10:53:32;18.15;;;12.38;;
57443;SDS011;43289;52.962;6.196;2023-11-22T10:56:03;21.58;;;14.80;;
57443;SDS011;43289;52.962;6.196;2023-11-22T10:58:29;18.45;;;11.80;;
57443;SDS011;43289;52.962;6.196;2023-11-22T11:00:57;17.88;;;11.38;;
57443;SDS011;43289;52.962;6.196;2023-11-22T11:03:24;16.60;;;11.88;;
57443;SDS011;43289;52.962;6.196;2023-11-22T11:05:59;19.25;;;12.57;;
57443;SDS011;43289;52.962;6.196;2023-11-22T11:08:32;15.43;;;11.88;;
57443;SDS011;43289;52.962;6.196;2023-11-22T11:10:58;16.67;;;11.45;;
57443;SDS011;43289;52.962;6.196;2023-11-22T11:13:27;15.35;;;10.02;;
57443;SDS011;43289;52.962;6.196;2023-11-22T11:15:53;17.52;;;12.85;;
57443;SDS011;43289;52.962;6.196;2023-11-22T11:18:20;15.88;;;10.40;;
57443;SDS011;43289;52.962;6.196;2023-11-22T11:20:54;17.38;;;10.68;;
57443;SDS011;43289;52.962;6.196;2023-11-22T11:23:21;16.60;;;10.88;;
57443;SDS011;43289;52.962;6.196;2023-11-22T11:25:52;15.35;;;10.75;;
57443;SDS011;43289;52.962;6.196;2023-11-22T11:28:18;14.85;;;10.13;;
57443;SDS011;43289;52.962;6.196;2023-11-22T11:30:45;22.88;;;16.38;;
57443;SDS011;43289;52.962;6.196;2023-11-22T11:33:13;20.67;;;15.18;;
57443;SDS011;43289;52.962;6.196;2023-11-22T11:35:48;18.42;;;12.18;;
57443;SDS011;43289;52.962;6.196;2023-11-22T11:38:15;14.52;;;11.13;;
57443;SDS011;43289;52.962;6.196;2023-11-22T11:40:42;14.55;;;11.18;;
57443;SDS011;43289;52.962;6.196;2023-11-22T11:43:09;15.70;;;11.10;;
57443;SDS011;43289;52.962;6.196;2023-11-22T11:45:37;15.80;;;10.77;;
57443;SDS011;43289;52.962;6.196;2023-11-22T11:48:04;17.17;;;10.40;;
57443;SDS011;43289;52.962;6.196;2023-11-22T11:50:31;13.07;;;9.77;;
57443;SDS011;43289;52.962;6.196;2023-11-22T11:52:57;15.18;;;10.40;;
57443;SDS011;43289;52.962;6.196;2023-11-22T11:55:23;14.63;;;10.32;;
57443;SDS011;43289;52.962;6.196;2023-11-22T11:57:52;15.80;;;10.70;;
57443;SDS011;43289;52.962;6.196;2023-11-22T12:00:19;17.20;;;12.95;;
57443;SDS011;43289;52.962;6.196;2023-11-22T12:02:45;17.95;;;12.38;;
57443;SDS011;43289;52.962;6.196;2023-11-22T12:05:11;15.05;;;10.02;;
57443;SDS011;43289;52.962;6.196;2023-11-22T12:07:38;14.65;;;11.68;;
57443;SDS011;43289;52.962;6.196;2023-11-22T12:10:04;16.75;;;11.65;;
57443;SDS011;43289;52.962;6.196;2023-11-22T12:12:34;13.63;;;10.25;;
57443;SDS011;43289;52.962;6.196;2023-11-22T12:15:00;16.83;;;11.63;;
57443;SDS011;43289;52.962;6.196;2023-11-22T12:17:26;14.35;;;10.60;;
57443;SDS011;43289;52.962;6.196;2023-11-22T12:19:53;14.75;;;10.55;;
57443;SDS011;43289;52.962;6.196;2023-11-22T12:22:20;15.05;;;9.98;;
57443;SDS011;43289;52.962;6.196;2023-11-22T12:24:46;12.27;;;9.77;;
57443;SDS011;43289;52.962;6.196;2023-11-22T12:27:12;20.50;;;14.73;;
57443;SDS011;43289;52.962;6.196;2023-11-22T12:29:39;15.48;;;12.50;;
57443;SDS011;43289;52.962;6.196;2023-11-22T12:32:07;16.63;;;11.13;;
57443;SDS011;43289;52.962;6.196;2023-11-22T12:34:33;14.60;;;9.98;;
57443;SDS011;43289;52.962;6.196;2023-11-22T12:37:00;13.13;;;8.90;;
57443;SDS011;43289;52.962;6.196;2023-11-22T12:39:26;13.07;;;9.07;;
57443;SDS011;43289;52.962;6.196;2023-11-22T12:41:52;19.88;;;13.52;;
57443;SDS011;43289;52.962;6.196;2023-11-22T12:44:19;28.45;;;19.55;;
57443;SDS011;43289;52.962;6.196;2023-11-22T12:46:46;17.00;;;11.23;;
57443;SDS011;43289;52.962;6.196;2023-11-22T12:49:20;15.57;;;10.38;;
57443;SDS011;43289;52.962;6.196;2023-11-22T12:51:51;17.05;;;12.50;;
57443;SDS011;43289;52.962;6.196;2023-11-22T12:54:17;19.80;;;13.50;;
57443;SDS011;43289;52.962;6.196;2023-11-22T12:56:49;22.92;;;16.27;;
57443;SDS011;43289;52.962;6.196;2023-11-22T12:59:15;32.40;;;22.45;;
57443;SDS011;43289;52.962;6.196;2023-11-22T13:01:43;25.65;;;16.83;;
57443;SDS011;43289;52.962;6.196;2023-11-22T13:04:08;22.65;;;14.40;;
57443;SDS011;43289;52.962;6.196;2023-11-22T13:06:36;24.33;;;16.88;;
57443;SDS011;43289;52.962;6.196;2023-11-22T13:09:02;23.95;;;16.50;;
57443;SDS011;43289;52.962;6.196;2023-11-22T13:11:28;22.95;;;15.38;;
57443;SDS011;43289;52.962;6.196;2023-11-22T13:13:54;36.60;;;22.80;;
57443;SDS011;43289;52.962;6.196;2023-11-22T13:16:21;22.83;;;14.90;;
57443;SDS011;43289;52.962;6.196;2023-11-22T13:18:47;26.77;;;17.85;;
57443;SDS011;43289;52.962;6.196;2023-11-22T13:21:13;20.10;;;13.43;;
57443;SDS011;43289;52.962;6.196;2023-11-22T13:23:39;21.48;;;14.25;;
57443;SDS011;43289;52.962;6.196;2023-11-22T13:26:05;20.10;;;13.05;;
57443;SDS011;43289;52.962;6.196;2023-11-22T13:28:34;19.67;;;12.10;;
57443;SDS011;43289;52.962;6.196;2023-11-22T13:31:00;18.05;;;11.55;;
57443;SDS011;43289;52.962;6.196;2023-11-22T13:33:26;26.90;;;16.77;;
57443;SDS011;43289;52.962;6.196;2023-11-22T13:35:53;20.05;;;13.10;;
57443;SDS011;43289;52.962;6.196;2023-11-22T13:38:19;17.27;;;11.38;;
57443;SDS011;43289;52.962;6.196;2023-11-22T13:40:45;17.30;;;11.75;;
57443;SDS011;43289;52.962;6.196;2023-11-22T13:43:11;19.17;;;12.32;;
57443;SDS011;43289;52.962;6.196;2023-11-22T13:45:38;24.95;;;15.90;;
57443;SDS011;43289;52.962;6.196;2023-11-22T13:48:06;21.58;;;12.95;;
57443;SDS011;43289;52.962;6.196;2023-11-22T13:50:34;17.08;;;11.52;;
57443;SDS011;43289;52.962;6.196;2023-11-22T13:53:01;15.52;;;10.45;;
57443;SDS011;43289;52.962;6.196;2023-11-22T13:55:28;94.07;;;48.08;;
57443;SDS011;43289;52.962;6.196;2023-11-22T13:57:56;20.08;;;14.13;;
57443;SDS011;43289;52.962;6.196;2023-11-22T14:00:24;19.80;;;12.38;;
57443;SDS011;43289;52.962;6.196;2023-11-22T14:02:54;20.55;;;13.75;;
57443;SDS011;43289;52.962;6.196;2023-11-22T14:05:23;16.65;;;11.32;;
57443;SDS011;43289;52.962;6.196;2023-11-22T14:07:49;18.52;;;11.43;;
57443;SDS011;43289;52.962;6.196;2023-11-22T14:10:16;14.73;;;10.68;;
57443;SDS011;43289;52.962;6.196;2023-11-22T14:12:43;15.65;;;10.45;;
57443;SDS011;43289;52.962;6.196;2023-11-22T14:17:44;14.83;;;10.87;;
57443;SDS011;43289;52.962;6.196;2023-11-22T14:20:10;17.45;;;10.55;;
57443;SDS011;43289;52.962;6.196;2023-11-22T14:22:37;14.18;;;10.45;;
57443;SDS011;43289;52.962;6.196;2023-11-22T14:25:04;18.90;;;10.43;;
57443;SDS011;43289;52.962;6.196;2023-11-22T14:27:33;15.50;;;9.48;;
57443;SDS011;43289;52.962;6.196;2023-11-22T14:29:59;13.77;;;9.10;;
57443;SDS011;43289;52.962;6.196;2023-11-22T14:32:30;13.00;;;8.63;;